Terminal Aerodrome Forecast
Issued by NWS Charleston, WV

Home | Current Version | Previous Version | Text Only | Print | Product List | Glossary On
Versions: 1 2 3 4 5 6 7 8 9 10 11 12 13 14 15 16 17 18 19 20 21 22 23 24 25 26 27
000
FTUS41 KRLX 211600 AAB
TAFEKN
TAF AMD
KEKN 211622Z 2116/2212 14003KT P6SM BKN040
      TEMPO 2116/2119 BKN025
     FM212000 15004KT P6SM SCT250
     FM212300 00000KT P6SM SCT250
     FM221100 00000KT P6SM BKN080=

USA.gov is the U.S. government's official web portal to all federal, state and local government web resources and services.